Terminal Aerodrome Forecast
Issued by NWS

Home | Current Version | Previous Version | Text Only | Print | Product List | Glossary On
Versions: 1 2 3 4 5 6 7 8 9 10 11 12 13 14 15 16 17 18 19 20
000
FTUS41 KRNK 231829 AAA
TAFBCB
TAF AMD
KBCB 231829Z 2318/2418 29008KT P6SM VCSH SCT018 BKN035
     FM232200 32007KT P6SM SCT100
     FM240900 00000KT 1 1/2SM BR OVC035
     FM241300 36007KT P6SM BKN050=

USA.gov is the U.S. government's official web portal to all federal, state and local government web resources and services.